createdAt,value
2023-02-12T00:02:25.492Z,63.74
2023-02-12T00:06:28.924Z,63.87
2023-02-12T00:10:31.952Z,64.18
2023-02-12T00:14:38.896Z,64.02
2023-02-12T00:18:42.509Z,64.65
2023-02-12T00:22:46.045Z,65.07
2023-02-12T00:26:51.142Z,64.59
2023-02-12T00:30:55.733Z,65.86
2023-02-12T00:34:58.937Z,66.21
2023-02-12T00:39:02.669Z,66.06
2023-02-12T00:43:06.383Z,67.40
2023-02-12T00:47:10.754Z,66.93
2023-02-12T00:51:14.188Z,67.13
2023-02-12T00:55:17.505Z,66.99
2023-02-12T00:59:21.136Z,66.64
2023-02-12T01:03:25.826Z,67.06
2023-02-12T01:07:29.064Z,68.06
2023-02-12T01:11:32.183Z,68.83
2023-02-12T01:15:35.980Z,69.58
2023-02-12T01:19:40.819Z,69.64
2023-02-12T01:23:44.689Z,69.68
2023-02-12T01:27:48.189Z,69.84
2023-02-12T01:31:51.781Z,70.03
2023-02-12T01:35:57.526Z,69.76
2023-02-12T01:40:00.712Z,69.89
2023-02-12T01:44:09.920Z,70.28
2023-02-12T01:48:14.740Z,70.81
2023-02-12T01:52:25.293Z,70.78
2023-02-12T01:56:29.580Z,70.67
2023-02-12T02:00:33.283Z,70.33
2023-02-12T02:04:45.175Z,70.33
2023-02-12T02:08:52.680Z,69.91
2023-02-12T02:13:13.698Z,69.83
2023-02-12T02:17:36.069Z,69.21
2023-02-12T02:22:18.898Z,70.15
2023-02-12T02:26:46.385Z,70.18
2023-02-12T02:30:57.470Z,70.45
2023-02-12T02:35:06.315Z,69.98
2023-02-12T02:39:17.935Z,70.23
2023-02-12T02:43:27.149Z,70.16
2023-02-12T02:47:39.507Z,70.51
2023-02-12T02:51:46.122Z,70.66
2023-02-12T02:55:54.421Z,70.40
2023-02-12T03:00:06.756Z,70.70
2023-02-12T03:04:18.090Z,70.28
2023-02-12T03:08:25.416Z,70.66
2023-02-12T03:12:33.603Z,70.65
2023-02-12T03:16:41.669Z,71.17
2023-02-12T03:20:53.136Z,71.24
2023-02-12T03:25:00.588Z,71.68
2023-02-12T03:29:03.826Z,72.57
2023-02-12T03:33:18.809Z,73.18
2023-02-12T03:37:32.186Z,73.08
2023-02-12T03:41:43.382Z,72.88
2023-02-12T03:45:51.872Z,73.73
2023-02-12T03:50:02.716Z,73.15
2023-02-12T03:54:09.430Z,72.48
2023-02-12T03:58:19.835Z,73.21
2023-02-12T04:02:23.298Z,72.87
2023-02-12T04:06:29.385Z,72.41
2023-02-12T04:10:41.775Z,72.35
2023-02-12T04:15:03.221Z,72.62
2023-02-12T04:19:07.140Z,72.61
2023-02-12T04:23:18.940Z,73.06
2023-02-12T04:27:30.880Z,72.81
2023-02-12T04:31:40.598Z,72.73
2023-02-12T04:35:50.072Z,72.67
2023-02-12T04:39:54.922Z,72.86
2023-02-12T04:43:59.984Z,72.43
2023-02-12T04:48:03.689Z,72.49
2023-02-12T04:52:07.352Z,72.17
2023-02-12T04:56:13.205Z,72.43
2023-02-12T05:00:18.851Z,72.10
2023-02-12T05:04:22.413Z,71.97
2023-02-12T05:08:25.274Z,72.34
2023-02-12T05:12:28.920Z,72.24
2023-02-12T05:16:33.328Z,72.65
2023-02-12T05:20:36.575Z,72.39
2023-02-12T05:24:40.636Z,72.38
2023-02-12T05:28:43.843Z,72.04
2023-02-12T05:32:48.437Z,72.15
2023-02-12T05:36:51.700Z,72.17
2023-02-12T05:40:54.771Z,71.66
2023-02-12T05:44:58.153Z,71.86
2023-02-12T05:49:03.114Z,71.60
2023-02-12T05:53:06.416Z,71.23
2023-02-12T05:57:09.971Z,71.44
2023-02-12T06:01:16.421Z,72.37
2023-02-12T06:05:21.074Z,71.88
2023-02-12T06:09:25.026Z,72.10
2023-02-12T06:13:28.431Z,72.75
2023-02-12T06:17:31.878Z,71.86
2023-02-12T06:21:36.729Z,72.15
2023-02-12T06:25:39.938Z,71.96
2023-02-12T06:29:43.665Z,72.09
2023-02-12T06:33:46.850Z,71.88
2023-02-12T06:37:51.463Z,72.17
2023-02-12T06:41:54.781Z,71.92
2023-02-12T06:45:58.492Z,71.72
2023-02-12T06:50:01.559Z,71.99
2023-02-12T06:54:06.399Z,71.46
2023-02-12T06:58:09.799Z,71.29
2023-02-12T07:02:13.892Z,71.50
2023-02-12T07:06:17.837Z,71.19
2023-02-12T07:10:22.621Z,71.35
2023-02-12T07:14:27.055Z,71.12
2023-02-12T07:18:30.456Z,71.51
2023-02-12T07:22:37.080Z,71.27
2023-02-12T07:26:43.025Z,71.28
2023-02-12T07:30:45.921Z,71.73
2023-02-12T07:34:49.180Z,71.64
2023-02-12T07:38:52.635Z,71.44
2023-02-12T07:42:58.453Z,71.20
2023-02-12T07:47:01.540Z,71.27
2023-02-12T07:51:07.463Z,71.14
2023-02-12T07:55:10.790Z,71.27
2023-02-12T07:59:17.936Z,71.26
2023-02-12T08:03:21.103Z,70.99
2023-02-12T08:07:24.433Z,70.82
2023-02-12T08:11:30.058Z,70.81
2023-02-12T08:15:34.861Z,70.99
2023-02-12T08:19:38.097Z,70.75
2023-02-12T08:23:41.299Z,70.96
2023-02-12T08:27:44.662Z,70.53
2023-02-12T08:31:50.938Z,70.93
2023-02-12T08:36:03.352Z,70.97
2023-02-12T08:40:07.096Z,70.38
2023-02-12T08:44:12.154Z,70.61
2023-02-12T08:48:16.837Z,70.46
2023-02-12T08:52:19.976Z,70.21
2023-02-12T08:56:26.481Z,70.64
2023-02-12T09:00:29.619Z,70.41
2023-02-12T09:04:36.262Z,70.50
2023-02-12T09:08:40.613Z,70.04
2023-02-12T09:12:46.263Z,69.84
2023-02-12T09:16:49.624Z,69.61
2023-02-12T09:20:54.165Z,69.63
2023-02-12T09:24:57.492Z,69.99
2023-02-12T09:29:02.748Z,70.14
2023-02-12T09:33:06.144Z,70.10
2023-02-12T09:37:10.512Z,69.80
2023-02-12T09:41:39.753Z,69.90
2023-02-12T09:45:50.365Z,68.29
2023-02-12T09:50:12.780Z,68.77
2023-02-12T09:54:21.066Z,68.30
2023-02-12T09:58:34.496Z,68.47
2023-02-12T10:02:39.288Z,68.03
2023-02-12T10:06:48.590Z,67.99
2023-02-12T10:10:59.949Z,67.62
2023-02-12T10:15:34.161Z,68.21
2023-02-12T10:20:01.478Z,67.14
2023-02-12T10:24:24.710Z,67.00
2023-02-12T10:28:34.588Z,66.34
2023-02-12T10:32:39.326Z,66.59
2023-02-12T10:36:44.885Z,65.90
2023-02-12T10:40:50.647Z,65.96
2023-02-12T10:44:55.561Z,65.57
2023-02-12T10:49:02.082Z,66.02
2023-02-12T10:53:05.127Z,65.38
2023-02-12T10:57:13.867Z,65.55
2023-02-12T11:01:22.309Z,65.06
2023-02-12T11:05:26.932Z,64.92
2023-02-12T11:09:32.734Z,64.93
2023-02-12T11:13:37.631Z,65.14
2023-02-12T11:17:44.642Z,64.51
2023-02-12T11:21:48.334Z,64.93
2023-02-12T11:25:58.685Z,65.57
2023-02-12T11:30:21.904Z,64.77
2023-02-12T11:34:27.050Z,63.07
2023-02-12T11:38:34.636Z,63.00
2023-02-12T11:42:43.843Z,62.85
2023-02-12T11:46:51.077Z,62.75
2023-02-12T11:50:59.403Z,61.99
2023-02-12T11:55:05.871Z,61.50
2023-02-12T11:59:21.053Z,61.80
2023-02-12T12:03:30.243Z,61.62
2023-02-12T12:07:38.612Z,61.31
2023-02-12T12:11:50.964Z,61.40
2023-02-12T12:16:19.243Z,61.38
2023-02-12T12:20:26.971Z,61.43
2023-02-12T12:24:40.103Z,61.09
2023-02-12T12:28:46.063Z,62.84
2023-02-12T12:32:53.737Z,61.51
2023-02-12T12:37:21.842Z,61.27
2023-02-12T12:41:33.786Z,61.74
2023-02-12T12:46:15.117Z,61.90
2023-02-12T12:50:46.686Z,62.37
2023-02-12T12:55:00.099Z,62.45
2023-02-12T12:59:31.704Z,62.89
2023-02-12T13:03:53.065Z,62.21
2023-02-12T13:08:02.946Z,61.38
2023-02-12T13:12:27.299Z,61.60
2023-02-12T13:16:36.882Z,61.37
2023-02-12T13:20:47.887Z,61.17
2023-02-12T13:24:59.485Z,61.01
2023-02-12T13:29:07.808Z,60.73
2023-02-12T13:33:18.641Z,59.87
2023-02-12T13:37:29.562Z,59.87
2023-02-12T13:41:33.667Z,59.96
2023-02-12T13:45:45.605Z,60.84
2023-02-12T13:49:56.478Z,60.62
2023-02-12T13:54:12.928Z,60.56
2023-02-12T13:58:50.429Z,61.53
2023-02-12T14:02:54.249Z,59.60
2023-02-12T14:07:02.219Z,60.41
2023-02-12T14:11:08.804Z,59.46
2023-02-12T14:15:27.578Z,59.33
2023-02-12T14:19:43.103Z,60.63
2023-02-12T14:23:50.827Z,59.65
2023-02-12T14:27:56.455Z,59.54
2023-02-12T14:31:59.755Z,59.48
2023-02-12T14:36:20.146Z,60.95
2023-02-12T14:40:49.315Z,60.98
2023-02-12T14:44:58.182Z,59.79
2023-02-12T14:49:06.993Z,58.95
2023-02-12T14:53:27.510Z,60.04
2023-02-12T14:57:34.924Z,59.44
2023-02-12T15:01:39.450Z,59.02
2023-02-12T15:05:45.025Z,58.82
2023-02-12T15:09:53.063Z,59.50
2023-02-12T15:14:02.469Z,59.07
2023-02-12T15:18:13.727Z,59.17
2023-02-12T15:22:23.740Z,59.05
2023-02-12T15:26:28.975Z,58.30
2023-02-12T15:30:36.838Z,58.84
2023-02-12T15:34:42.368Z,58.48
2023-02-12T15:38:46.196Z,59.09
2023-02-12T15:42:55.291Z,59.56
2023-02-12T15:47:04.232Z,59.91
2023-02-12T15:51:15.636Z,60.26
2023-02-12T15:55:21.785Z,60.87
2023-02-12T15:59:29.253Z,61.48
2023-02-12T16:03:36.474Z,61.93
2023-02-12T16:07:39.939Z,62.20
2023-02-12T16:11:45.904Z,63.03
2023-02-12T16:16:05.929Z,63.66
2023-02-12T16:20:24.938Z,63.98
2023-02-12T16:24:34.076Z,64.61
2023-02-12T16:28:38.604Z,65.06
2023-02-12T16:32:45.251Z,65.63
2023-02-12T16:36:50.186Z,66.47
2023-02-12T16:41:16.295Z,66.16
2023-02-12T16:45:35.984Z,67.07
2023-02-12T16:49:39.197Z,68.00
2023-02-12T16:53:47.726Z,68.08
2023-02-12T16:57:51.012Z,68.53
2023-02-12T17:02:02.503Z,68.53
2023-02-12T17:06:06.104Z,69.17
2023-02-12T17:10:14.384Z,69.86
2023-02-12T17:14:20.530Z,70.19
2023-02-12T17:18:24.358Z,70.48
2023-02-12T17:22:28.774Z,69.87
2023-02-12T17:26:33.627Z,70.64
2023-02-12T17:30:37.456Z,71.75
2023-02-12T17:34:48.504Z,71.95
2023-02-12T17:44:17.367Z,71.63
2023-02-12T17:48:23.019Z,72.21
2023-02-12T17:52:26.318Z,72.02
2023-02-12T17:56:29.201Z,72.30
2023-02-12T18:00:33.878Z,72.07
2023-02-12T18:04:36.956Z,72.21
2023-02-12T18:08:40.199Z,73.17
2023-02-12T18:12:44.417Z,73.80
2023-02-12T18:16:49.171Z,75.42
2023-02-12T18:20:52.609Z,77.08
2023-02-12T18:24:58.184Z,76.84
2023-02-12T18:29:03.029Z,76.52
2023-02-12T18:33:08.994Z,75.50
2023-02-12T18:37:13.846Z,75.79
2023-02-12T18:41:19.047Z,75.54
2023-02-12T18:45:22.909Z,75.68
2023-02-12T18:49:28.306Z,75.28
2023-02-12T18:53:32.013Z,74.87
2023-02-12T18:57:35.246Z,73.85
2023-02-12T19:01:40.162Z,73.66
2023-02-12T19:05:44.670Z,73.35
2023-02-12T19:09:49.292Z,72.84
2023-02-12T19:13:52.780Z,72.12
2023-02-12T19:17:56.384Z,72.02
2023-02-12T19:22:01.064Z,71.54
2023-02-12T19:26:05.470Z,71.69
2023-02-12T19:30:10.198Z,72.31
2023-02-12T19:34:17.087Z,72.94
2023-02-12T19:38:21.789Z,72.62
2023-02-12T19:42:25.313Z,73.43
2023-02-12T19:46:30.324Z,73.68
2023-02-12T19:50:35.411Z,72.72
2023-02-12T19:54:39.857Z,73.02
2023-02-12T19:58:43.360Z,73.64
2023-02-12T20:02:48.030Z,74.10
2023-02-12T20:06:53.293Z,74.39
2023-02-12T20:10:58.146Z,74.08
2023-02-12T20:15:05.487Z,73.56
2023-02-12T20:19:10.940Z,73.04
2023-02-12T20:23:14.248Z,73.35
2023-02-12T20:27:18.490Z,73.14
2023-02-12T20:31:24.403Z,73.21
2023-02-12T20:35:28.444Z,74.70
2023-02-12T20:39:32.000Z,74.82
2023-02-12T20:43:37.201Z,74.90
2023-02-12T20:47:43.629Z,74.81
2023-02-12T20:51:50.701Z,74.57
2023-02-12T20:55:54.296Z,74.58
2023-02-12T20:59:58.534Z,75.05
2023-02-12T21:04:04.352Z,74.60
2023-02-12T21:08:07.948Z,74.71
2023-02-12T21:12:11.604Z,74.19
2023-02-12T21:16:18.823Z,73.94
2023-02-12T21:20:22.159Z,73.77
2023-02-12T21:24:27.043Z,74.15
2023-02-12T21:28:30.681Z,73.86
2023-02-12T21:32:35.415Z,73.65
2023-02-12T21:36:41.213Z,72.98
2023-02-12T21:40:44.897Z,72.82
2023-02-12T21:44:47.922Z,72.93
2023-02-12T21:48:53.765Z,73.22
2023-02-12T21:52:56.851Z,73.88
2023-02-12T21:57:01.047Z,73.95
2023-02-12T22:01:09.045Z,73.83
2023-02-12T22:05:14.051Z,73.72
2023-02-12T22:09:19.167Z,74.15
2023-02-12T22:13:22.469Z,73.41
2023-02-12T22:17:25.569Z,72.95
2023-02-12T22:21:32.591Z,72.94
2023-02-12T22:25:35.851Z,73.16
2023-02-12T22:29:39.184Z,73.47
2023-02-12T22:33:42.262Z,73.48
2023-02-12T22:37:47.200Z,73.15
2023-02-12T22:41:50.617Z,72.96
2023-02-12T22:45:53.732Z,73.75
2023-02-12T22:49:57.242Z,72.86
2023-02-12T22:54:02.395Z,73.05
2023-02-12T22:58:05.347Z,73.32
2023-02-12T23:02:08.561Z,73.42
2023-02-12T23:06:14.590Z,73.44
2023-02-12T23:10:19.511Z,73.44
2023-02-12T23:14:22.987Z,73.69
2023-02-12T23:18:26.919Z,73.74
2023-02-12T23:22:29.842Z,73.71
2023-02-12T23:26:36.570Z,73.37
2023-02-12T23:30:39.861Z,73.21
2023-02-12T23:34:42.847Z,73.48
2023-02-12T23:38:46.102Z,73.17
2023-02-12T23:42:51.187Z,73.36
2023-02-12T23:46:54.511Z,73.26
2023-02-12T23:50:58.176Z,72.87
2023-02-12T23:55:02.079Z,72.97
2023-02-12T23:59:06.715Z,72.67
